Time;durP1;ratioP1;P1;durP2;ratioP2;P2;SDS_P1;SDS_P2;PMS_P1;PMS_P2;Temp;Humidity;BMP_temperature;BMP_pressure;BME280_temperature;BME280_humidity;BME280_pressure;Samples;Min_cycle;Max_cycle;Signal;HPM_P1;HPM_P2
2021/06/15 00:01:06;;;;;;;18.48;9.52;;;;;;;15.63;47.34;98875.59;5088108;28;20020;-74
2021/06/15 00:03:31;;;;;;;26.73;11.05;;;;;;;15.56;47.39;98879.97;5091423;28;20020;-74
2021/06/15 00:05:57;;;;;;;36.60;15.23;;;;;;;15.48;47.53;98879.63;5091726;28;20034;-75
2021/06/15 00:08:22;;;;;;;43.47;16.77;;;;;;;15.45;48.02;98883.00;5092501;28;20023;-75
2021/06/15 00:10:48;;;;;;;39.38;15.50;;;;;;;15.44;47.93;98877.81;5073905;28;20024;-75
2021/06/15 00:13:13;;;;;;;38.58;14.25;;;;;;;15.43;48.11;98877.00;5092155;28;20438;-74
2021/06/15 00:15:47;;;;;;;37.50;15.07;;;;;;;15.43;48.04;98873.44;5092591;28;20107;-74
2021/06/15 00:18:12;;;;;;;36.45;16.35;;;;;;;15.41;48.21;98868.19;5090038;28;20020;-74
2021/06/15 00:20:38;;;;;;;41.85;17.55;;;;;;;15.42;48.32;98874.56;5092252;28;20476;-74
2021/06/15 00:23:03;;;;;;;44.03;19.73;;;;;;;15.38;48.62;98877.13;5092069;28;20027;-74
2021/06/15 00:25:28;;;;;;;41.03;19.15;;;;;;;15.36;48.51;98878.59;5091470;28;20468;-73
2021/06/15 00:27:54;;;;;;;51.33;20.60;;;;;;;15.33;48.80;98872.56;5092218;28;20039;-74
2021/06/15 00:30:20;;;;;;;45.47;20.23;;;;;;;15.35;48.73;98877.75;5091875;28;20073;-75
2021/06/15 00:32:47;;;;;;;46.08;21.58;;;;;;;15.35;48.89;98872.22;5091915;28;20026;-74
2021/06/15 00:35:13;;;;;;;49.35;20.60;;;;;;;15.37;48.84;98867.19;5089302;28;20009;-74
2021/06/15 00:37:38;;;;;;;45.25;20.55;;;;;;;15.35;49.27;98861.19;5091934;28;20537;-74
2021/06/15 00:40:05;;;;;;;46.30;20.50;;;;;;;15.31;49.14;98860.19;5091846;28;20031;-73
2021/06/15 00:42:31;;;;;;;46.28;19.77;;;;;;;15.28;49.27;98853.34;5092187;28;20103;-73
2021/06/15 00:44:56;;;;;;;48.47;20.15;;;;;;;15.25;49.09;98848.47;5091928;28;20243;-74
2021/06/15 00:47:22;;;;;;;47.42;19.83;;;;;;;15.20;49.26;98856.88;5091940;28;20036;-74
2021/06/15 00:49:48;;;;;;;39.95;18.75;;;;;;;15.14;49.32;98856.22;5092129;28;20522;-74
2021/06/15 00:52:14;;;;;;;44.58;19.50;;;;;;;15.11;49.53;98840.28;5092182;28;20044;-74
2021/06/15 00:54:43;;;;;;;39.00;17.95;;;;;;;15.06;49.31;98839.59;5092252;28;20422;-74
2021/06/15 00:57:15;;;;;;;37.85;18.08;;;;;;;15.07;49.66;98841.25;5091631;28;20024;-74
2021/06/15 00:59:40;;;;;;;42.13;20.10;;;;;;;15.03;49.69;98836.34;5090875;28;20020;-74
2021/06/15 01:02:06;;;;;;;44.70;20.75;;;;;;;15.03;49.77;98835.50;5091960;28;20030;-74
2021/06/15 01:04:31;;;;;;;42.47;18.90;;;;;;;14.97;49.73;98837.59;5091514;28;20020;-74
2021/06/15 01:07:19;;;;;;;43.53;18.42;;;;;;;14.98;49.78;98841.16;5091632;28;20092;-74
2021/06/15 01:10:09;;;;;;;44.88;19.83;;;;;;;14.91;49.59;98838.03;5091798;28;20028;-74
2021/06/15 01:12:53;;;;;;;43.42;18.30;;;;;;;14.87;49.73;98827.66;5091025;28;20028;-75
2021/06/15 01:15:29;;;;;;;42.65;19.10;;;;;;;14.82;49.73;98827.78;5089615;28;20020;-74
2021/06/15 01:17:59;;;;;;;43.35;19.45;;;;;;;14.77;49.83;98825.16;5091599;28;20032;-74
2021/06/15 01:20:27;;;;;;;45.05;19.30;;;;;;;14.71;49.81;98827.19;5091632;28;20020;-74
2021/06/15 01:23:04;;;;;;;40.42;19.40;;;;;;;14.70;50.07;98827.53;5073209;28;20609;-74
2021/06/15 01:25:37;;;;;;;51.60;21.02;;;;;;;14.69;49.87;98836.94;5091015;28;20051;-74
2021/06/15 01:28:08;;;;;;;52.95;22.40;;;;;;;14.65;50.22;98833.13;5091624;28;20044;-74
2021/06/15 01:30:48;;;;;;;54.70;22.40;;;;;;;14.65;50.37;98822.09;5090885;28;20100;-74
2021/06/15 01:33:14;;;;;;;;;;;;;;;14.61;50.17;98824.69;5104421;28;20073;-74
2021/06/15 01:35:40;;;;;;;50.78;21.80;;;;;;;14.57;50.17;98829.19;5089943;28;19957;-74
2021/06/15 01:38:11;;;;;;;50.78;23.88;;;;;;;14.53;50.40;98815.19;5090821;28;20484;-74
2021/06/15 01:40:41;;;;;;;46.40;22.92;;;;;;;14.54;50.51;98819.59;5090724;28;20021;-74
2021/06/15 01:43:15;;;;;;;46.97;21.77;;;;;;;14.50;50.43;98818.56;5090471;28;20024;-73
2021/06/15 01:45:42;;;;;;;52.30;22.75;;;;;;;14.50;50.47;98807.53;5089109;28;20074;-74
2021/06/15 01:48:25;;;;;;;48.80;22.77;;;;;;;14.52;50.64;98812.75;5090231;28;20040;-74
2021/06/15 01:50:53;;;;;;;54.22;22.90;;;;;;;14.49;50.41;98811.44;5090304;28;20052;-73
2021/06/15 01:53:20;;;;;;;46.92;19.58;;;;;;;14.46;50.72;98805.72;5088831;28;20024;-73
2021/06/15 01:55:51;;;;;;;55.03;23.05;;;;;;;14.43;50.65;98801.66;5090386;28;20032;-73
2021/06/15 01:58:17;;;;;;;45.08;20.40;;;;;;;14.39;51.02;98809.75;5089800;28;20020;-74
2021/06/15 02:00:44;;;;;;;49.58;22.20;;;;;;;14.40;50.84;98813.34;5090591;28;20062;-73
2021/06/15 02:03:10;;;;;;;48.42;22.35;;;;;;;14.38;50.96;98812.81;5090315;28;20059;-73
2021/06/15 02:05:40;;;;;;;54.45;22.55;;;;;;;14.33;50.87;98808.22;5090100;28;20039;-74
2021/06/15 02:08:07;;;;;;;;;;;;;;;14.29;50.92;98801.69;5090835;28;20039;-74
2021/06/15 02:10:35;;;;;;;46.08;20.75;;;;;;;14.22;51.29;98802.16;5090391;28;19999;-73
2021/06/15 02:13:02;;;;;;;52.22;22.60;;;;;;;14.18;51.21;98808.59;5090647;28;20110;-74
2021/06/15 02:15:28;;;;;;;45.90;21.08;;;;;;;14.18;51.29;98801.13;5090371;28;20384;-74
2021/06/15 02:17:57;;;;;;;44.85;20.23;;;;;;;14.19;51.38;98802.78;5090234;28;20032;-73
2021/06/15 02:20:30;;;;;;;42.28;20.33;;;;;;;14.17;51.47;98791.22;5093541;28;20379;-73
2021/06/15 02:22:59;;;;;;;45.53;21.30;;;;;;;14.15;51.60;98801.75;5075499;28;20035;-72
2021/06/15 02:25:35;;;;;;;47.70;20.77;;;;;;;14.15;51.64;98799.00;5088940;28;20031;-72
2021/06/15 02:28:00;;;;;;;43.80;19.65;;;;;;;14.13;51.58;98798.50;5091127;28;20043;-72
2021/06/15 02:30:26;;;;;;;46.53;20.15;;;;;;;14.10;51.71;98791.66;5090338;28;20074;-73
2021/06/15 02:32:55;;;;;;;43.53;20.15;;;;;;;14.08;51.68;98793.91;5089605;28;20081;-72
2021/06/15 02:35:24;;;;;;;44.70;20.43;;;;;;;14.03;51.84;98804.25;5089840;28;20028;-73
2021/06/15 02:38:01;;;;;;;42.97;18.75;;;;;;;14.02;51.83;98805.38;5090613;28;20048;-73
2021/06/15 02:40:27;;;;;;;40.38;18.50;;;;;;;14.01;52.11;98801.81;5090982;28;20038;-73
2021/06/15 02:42:55;;;;;;;40.45;18.90;;;;;;;14.01;51.86;98796.28;5071836;28;20028;-73
2021/06/15 02:45:25;;;;;;;41.63;18.40;;;;;;;13.97;51.84;98804.38;5089576;28;20023;-73
2021/06/15 02:47:53;;;;;;;42.83;19.40;;;;;;;13.97;52.12;98817.34;5071236;28;20123;-73
2021/06/15 02:50:20;;;;;;;40.28;18.05;;;;;;;13.92;52.04;98804.50;5091554;28;20023;-73
2021/06/15 02:52:51;;;;;;;41.47;19.35;;;;;;;13.84;51.96;98813.50;5092601;28;20031;-73
2021/06/15 02:55:23;;;;;;;45.08;20.65;;;;;;;13.78;51.89;98823.00;5087068;28;20555;-73
2021/06/15 02:57:49;;;;;;;43.00;18.85;;;;;;;13.76;52.33;98806.78;5088908;28;20024;-73
2021/06/15 03:00:15;;;;;;;38.80;18.65;;;;;;;13.75;52.26;98818.09;5087031;28;20081;-72
2021/06/15 03:02:40;;;;;;;39.35;17.92;;;;;;;13.74;52.18;98805.44;5090070;28;20055;-73
2021/06/15 03:05:08;;;;;;;46.28;20.95;;;;;;;13.81;52.41;98814.94;5089517;28;20056;-73
2021/06/15 03:07:34;;;;;;;39.88;18.35;;;;;;;13.86;52.67;98811.25;5089206;28;20028;-73
2021/06/15 03:10:02;;;;;;;40.90;19.45;;;;;;;13.87;52.51;98812.88;5091612;28;20024;-73
2021/06/15 03:12:30;;;;;;;42.63;19.85;;;;;;;13.89;52.68;98823.56;5090497;28;20031;-73
2021/06/15 03:15:07;;;;;;;44.38;19.77;;;;;;;13.92;52.25;98818.28;5089223;28;20043;-73
2021/06/15 03:17:35;;;;;;;39.97;19.30;;;;;;;13.94;52.83;98816.03;5090718;28;20024;-72
2021/06/15 03:20:12;;;;;;;40.42;19.38;;;;;;;13.93;52.53;98814.41;5091969;28;20111;-73
2021/06/15 03:22:46;;;;;;;42.50;18.10;;;;;;;13.94;52.74;98821.53;5090674;28;20493;-73
2021/06/15 03:25:15;;;;;;;45.53;19.67;;;;;;;13.93;52.76;98828.19;5091434;28;20083;-73
2021/06/15 03:27:58;;;;;;;52.25;20.75;;;;;;;13.94;52.86;98810.50;5074058;28;20066;-73
2021/06/15 03:30:25;;;;;;;38.95;19.17;;;;;;;13.99;53.09;98821.44;5072635;28;20058;-73
2021/06/15 03:32:54;;;;;;;47.92;20.10;;;;;;;14.02;53.07;98817.22;5090712;28;20024;-73
2021/06/15 03:35:23;;;;;;;46.55;18.48;;;;;;;14.06;53.12;98809.97;5090396;28;20024;-73
2021/06/15 03:37:51;;;;;;;41.63;20.00;;;;;;;14.11;53.49;98815.38;5096186;28;20333;-73
2021/06/15 03:40:19;;;;;;;40.88;16.95;;;;;;;14.17;53.30;98812.50;5094863;28;20469;-73
2021/06/15 03:42:45;;;;;;;38.08;17.33;;;;;;;14.21;53.20;98811.53;5094836;28;20034;-73
2021/06/15 03:45:12;;;;;;;40.05;18.83;;;;;;;14.26;53.08;98805.13;5094207;28;20460;-73
2021/06/15 03:47:39;;;;;;;48.38;18.95;;;;;;;14.28;53.11;98809.19;5094309;28;20036;-73
2021/06/15 03:50:07;;;;;;;42.65;19.38;;;;;;;14.32;53.41;98805.78;5095080;28;20024;-73
2021/06/15 03:52:37;;;;;;;43.53;18.23;;;;;;;14.39;53.58;98806.19;5096054;28;20423;-73
2021/06/15 03:55:05;;;;;;;38.50;17.95;;;;;;;14.44;53.61;98797.78;5096354;28;20036;-73
2021/06/15 03:57:32;;;;;;;47.20;20.08;;;;;;;14.50;53.56;98792.94;5096141;28;20100;-73
2021/06/15 04:00:00;;;;;;;43.58;19.38;;;;;;;14.54;53.43;98797.50;5094632;28;20040;-72
2021/06/15 04:02:33;;;;;;;44.63;20.30;;;;;;;14.57;53.44;98807.13;5095458;28;20610;-73
2021/06/15 04:04:59;;;;;;;39.13;20.60;;;;;;;14.60;53.58;98798.22;5092369;28;20050;-73
2021/06/15 04:07:25;;;;;;;43.28;20.48;;;;;;;14.63;53.64;98807.78;5093640;28;20377;-73
2021/06/15 04:09:51;;;;;;;41.92;20.77;;;;;;;14.65;53.48;98805.53;5097545;28;20078;-74
2021/06/15 04:12:19;;;;;;;44.47;21.92;;;;;;;14.68;53.55;98804.91;5095731;28;20032;-73
2021/06/15 04:14:51;;;;;;;43.78;20.77;;;;;;;14.73;53.61;98797.31;5093701;28;20099;-73
2021/06/15 04:17:21;;;;;;;40.88;20.75;;;;;;;14.81;53.68;98797.69;5093507;28;20406;-73
2021/06/15 04:19:54;;;;;;;50.33;24.60;;;;;;;14.89;53.99;98797.75;5075638;28;20586;-72
2021/06/15 04:22:21;;;;;;;52.22;25.33;;;;;;;14.96;54.01;98802.00;5095113;28;20038;-73
2021/06/15 04:24:49;;;;;;;47.38;23.20;;;;;;;15.02;53.98;98809.03;5095484;28;20448;-74
2021/06/15 04:27:20;;;;;;;60.63;25.98;;;;;;;15.07;54.11;98802.56;5093042;28;20576;-73
2021/06/15 04:29:46;;;;;;;59.97;26.23;;;;;;;15.13;54.18;98801.28;5093651;28;20028;-73
2021/06/15 04:32:14;;;;;;;51.70;24.17;;;;;;;15.21;54.41;98805.22;5095302;28;20111;-73
2021/06/15 04:34:45;;;;;;;56.25;24.73;;;;;;;15.30;54.41;98809.63;5091214;28;20063;-73
2021/06/15 04:37:13;;;;;;;56.03;24.75;;;;;;;15.39;54.11;98806.09;5094014;28;20027;-73
2021/06/15 04:39:46;;;;;;;58.85;25.63;;;;;;;15.44;54.14;98812.28;5093441;28;20107;-73
2021/06/15 04:42:31;;;;;;;56.47;24.40;;;;;;;15.47;53.86;98806.13;5093520;28;20032;-73
2021/06/15 04:44:58;;;;;;;60.42;25.55;;;;;;;15.50;54.33;98817.66;5093635;28;20043;-73
2021/06/15 04:47:34;;;;;;;87.80;27.30;;;;;;;15.51;54.51;98822.06;5092285;28;20040;-73
2021/06/15 04:50:06;;;;;;;54.22;22.52;;;;;;;15.52;54.17;98821.72;5094062;28;20353;-73
2021/06/15 04:52:32;;;;;;;52.97;22.85;;;;;;;15.54;54.58;98825.00;5096150;28;20059;-72
2021/06/15 04:55:00;;;;;;;52.10;22.17;;;;;;;15.57;54.12;98818.03;5099522;28;20334;-74
2021/06/15 04:57:28;;;;;;;50.67;22.02;;;;;;;15.61;54.10;98828.09;5092579;28;20511;-74
2021/06/15 04:59:56;;;;;;;51.60;21.27;;;;;;;15.68;54.50;98824.06;5090686;28;20533;-73
2021/06/15 05:02:25;;;;;;;49.97;20.77;;;;;;;15.76;54.16;98831.56;5092679;28;20100;-73
2021/06/15 05:04:52;;;;;;;45.33;19.17;;;;;;;15.83;54.18;98828.31;5096579;28;20032;-77
2021/06/15 05:07:21;;;;;;;50.35;19.63;;;;;;;15.89;54.10;98822.38;5092572;28;20437;-72
2021/06/15 05:09:55;;;;;;;46.92;18.90;;;;;;;15.94;54.23;98829.69;5092922;28;20028;-72
2021/06/15 05:12:22;;;;;;;44.08;18.95;;;;;;;16.01;54.24;98827.25;5095964;28;20490;-72
2021/06/15 05:14:49;;;;;;;50.65;18.80;;;;;;;16.06;53.98;98829.03;5094966;28;20040;-72
2021/06/15 05:17:18;;;;;;;45.80;17.48;;;;;;;16.14;53.74;98828.25;5093030;28;20084;-73
2021/06/15 05:19:43;;;;;;;42.78;17.23;;;;;;;16.20;53.97;98826.94;5097369;28;20035;-73
2021/06/15 05:22:24;;;;;;;39.40;17.20;;;;;;;16.24;53.77;98824.34;5092708;28;20400;-72
2021/06/15 05:24:50;;;;;;;40.50;16.00;;;;;;;16.33;53.71;98821.56;5092904;28;20495;-72
2021/06/15 05:27:19;;;;;;;42.47;17.60;;;;;;;16.40;53.66;98832.16;5092817;28;20472;-73
2021/06/15 05:29:44;;;;;;;39.00;17.48;;;;;;;16.44;53.77;98822.88;5095433;28;20023;-73
2021/06/15 05:32:10;;;;;;;41.20;17.25;;;;;;;16.50;53.84;98829.06;5096674;28;20426;-73
2021/06/15 05:34:37;;;;;;;41.30;16.65;;;;;;;16.55;53.96;98833.63;5093838;28;20028;-71
2021/06/15 05:37:04;;;;;;;37.05;16.70;;;;;;;16.62;53.66;98840.28;5092761;28;20476;-72
2021/06/15 05:39:31;;;;;;;42.90;17.70;;;;;;;16.66;53.53;98841.25;5094505;28;20045;-72
2021/06/15 05:41:56;;;;;;;38.92;16.98;;;;;;;16.74;53.84;98845.16;5093521;28;20800;-72
2021/06/15 05:44:21;;;;;;;36.72;16.08;;;;;;;16.81;53.88;98841.91;5072968;28;20016;-72
2021/06/15 05:46:47;;;;;;;37.90;15.48;;;;;;;16.87;53.32;98836.97;5091303;28;20115;-72
2021/06/15 05:49:12;;;;;;;43.42;15.70;;;;;;;16.92;53.61;98837.63;5091443;28;20043;-72
2021/06/15 05:51:38;;;;;;;39.95;15.38;;;;;;;16.99;53.79;98841.88;5091293;28;20055;-73
2021/06/15 05:54:04;;;;;;;37.63;14.43;;;;;;;17.03;53.66;98848.38;5091875;28;20028;-73
2021/06/15 05:56:30;;;;;;;32.60;12.52;;;;;;;17.05;53.51;98844.16;5091278;28;20027;-73
2021/06/15 05:58:55;;;;;;;32.17;14.45;;;;;;;17.11;53.64;98853.94;5091938;28;20036;-73
2021/06/15 06:01:21;;;;;;;30.92;12.00;;;;;;;17.15;53.25;98847.69;5073297;28;20032;-71
2021/06/15 06:03:54;;;;;;;34.97;12.57;;;;;;;17.23;53.01;98857.94;5072711;28;20024;-72
2021/06/15 06:09:04;;;;;;;34.95;14.55;;;;;;;17.39;53.24;98859.03;5092535;28;20101;-71
2021/06/15 06:11:29;;;;;;;34.50;13.48;;;;;;;17.46;52.96;98868.81;5092291;28;20036;-72
2021/06/15 06:13:55;;;;;;;37.28;14.90;;;;;;;17.51;52.70;98861.09;5093270;28;20066;-72
2021/06/15 06:16:20;;;;;;;31.35;14.30;;;;;;;17.55;52.62;98864.00;5093806;28;20023;-71
2021/06/15 06:18:46;;;;;;;37.65;13.43;;;;;;;17.60;52.60;98865.81;5087152;28;20031;-72
2021/06/15 06:21:11;;;;;;;36.20;15.07;;;;;;;17.66;52.82;98872.81;5086951;28;20039;-71
2021/06/15 06:23:37;;;;;;;33.92;13.70;;;;;;;17.73;52.72;98864.75;5089126;28;20031;-72
2021/06/15 06:26:04;;;;;;;37.45;13.85;;;;;;;17.84;52.63;98863.22;5090746;28;20035;-71
2021/06/15 06:28:30;;;;;;;36.80;13.35;;;;;;;17.93;52.52;98873.47;5092020;28;20074;-71
2021/06/15 06:30:56;;;;;;;32.00;13.10;;;;;;;18.02;52.77;98870.66;5090525;28;20543;-72
2021/06/15 06:33:21;;;;;;;36.13;12.32;;;;;;;18.08;52.51;98864.59;5090432;28;20031;-72
2021/06/15 06:35:46;;;;;;;32.55;12.77;;;;;;;18.15;52.40;98873.19;5090252;28;20043;-72
2021/06/15 06:38:12;;;;;;;32.42;12.70;;;;;;;18.19;52.43;98869.72;5091420;28;20020;-75
2021/06/15 06:40:37;;;;;;;28.10;12.25;;;;;;;18.28;52.14;98876.03;5091851;28;20377;-79
2021/06/15 06:43:03;;;;;;;31.63;10.90;;;;;;;18.35;52.43;98864.38;5093240;28;20024;-75
2021/06/15 06:45:28;;;;;;;36.78;13.00;;;;;;;18.37;52.04;98864.88;5093172;28;20040;-77
2021/06/15 06:47:54;;;;;;;32.58;11.48;;;;;;;18.42;52.06;98862.72;5091895;28;20785;-79
2021/06/15 06:50:19;;;;;;;30.45;11.45;;;;;;;18.51;51.96;98868.19;5092980;28;20032;-76
2021/06/15 06:52:44;;;;;;;32.75;13.75;;;;;;;18.58;51.82;98859.28;5088214;28;20038;-79
2021/06/15 06:55:11;;;;;;;31.15;11.77;;;;;;;18.66;51.39;98869.53;5088893;28;20032;-75
2021/06/15 06:57:36;;;;;;;30.05;11.65;;;;;;;18.70;51.39;98859.38;5089503;28;20063;-77
2021/06/15 07:00:05;;;;;;;34.17;13.48;;;;;;;18.74;51.46;98853.94;5089873;28;20048;-78
2021/06/15 07:02:30;;;;;;;35.67;14.38;;;;;;;18.81;51.93;98859.75;5090496;28;20097;-77
2021/06/15 07:04:56;;;;;;;36.00;13.43;;;;;;;18.90;51.40;98846.59;5092507;28;20484;-77
2021/06/15 07:07:21;;;;;;;32.83;12.52;;;;;;;18.96;51.21;98844.41;5089557;28;20469;-77
2021/06/15 07:09:47;;;;;;;33.17;12.40;;;;;;;19.03;51.21;98844.66;5089933;28;20115;-78
2021/06/15 07:12:14;;;;;;;34.47;15.55;;;;;;;19.13;51.10;98849.00;5090503;28;20068;-80
2021/06/15 07:14:40;;;;;;;43.42;17.08;;;;;;;19.21;51.33;98855.63;5090130;28;20503;-79
2021/06/15 07:17:05;;;;;;;29.35;12.60;;;;;;;19.29;51.31;98856.66;5089687;28;20032;-79
2021/06/15 07:19:31;;;;;;;31.25;12.10;;;;;;;19.39;51.10;98858.19;5089761;28;20028;-78
2021/06/15 07:21:56;;;;;;;32.28;11.80;;;;;;;19.45;51.32;98860.41;5089461;28;20419;-78
2021/06/15 07:24:22;;;;;;;31.52;11.10;;;;;;;19.53;50.99;98853.09;5085696;28;20113;-75
2021/06/15 07:26:47;;;;;;;27.90;10.55;;;;;;;19.62;50.71;98856.59;5072188;28;20032;-78
2021/06/15 07:29:13;;;;;;;28.55;10.52;;;;;;;19.69;50.62;98855.19;5093689;28;20502;-76
2021/06/15 07:31:38;;;;;;;29.67;11.38;;;;;;;19.78;50.46;98853.09;5089206;28;20036;-75
2021/06/15 07:34:03;;;;;;;29.63;10.73;;;;;;;19.87;50.32;98856.56;5088650;28;20114;-81
2021/06/15 07:36:29;;;;;;;26.98;11.18;;;;;;;19.96;50.17;98852.88;5087141;28;20118;-77
2021/06/15 07:38:54;;;;;;;27.13;11.13;;;;;;;20.05;50.01;98851.59;5086721;28;20060;-78
2021/06/15 07:41:20;;;;;;;23.52;10.73;;;;;;;20.12;49.94;98852.97;5083431;28;20032;-77
2021/06/15 07:43:45;;;;;;;22.50;10.20;;;;;;;20.20;49.87;98849.25;5088549;28;20119;-77
2021/06/15 07:46:11;;;;;;;25.48;9.75;;;;;;;20.27;49.86;98846.69;5088822;28;20036;-75
2021/06/15 07:48:36;;;;;;;27.42;9.93;;;;;;;20.36;49.68;98846.53;5089678;28;20050;-74
2021/06/15 07:51:02;;;;;;;26.95;9.50;;;;;;;20.48;49.64;98842.91;5087076;28;20071;-80
2021/06/15 07:53:27;;;;;;;25.42;8.80;;;;;;;20.56;49.43;98850.31;5091187;28;20153;-79
2021/06/15 07:55:52;;;;;;;20.13;8.20;;;;;;;20.64;49.35;98841.00;5070530;28;20122;-75
2021/06/15 07:58:18;;;;;;;28.60;9.45;;;;;;;20.72;49.15;98836.44;5087319;28;20024;-80
2021/06/15 08:00:43;;;;;;;20.77;8.43;;;;;;;20.79;49.05;98838.63;5070483;28;20064;-78
2021/06/15 08:03:08;;;;;;;19.00;7.90;;;;;;;20.85;49.00;98841.97;5089247;28;20055;-73
2021/06/15 08:05:34;;;;;;;20.30;7.78;;;;;;;20.89;48.73;98840.09;5092035;28;20020;-76
2021/06/15 08:08:01;;;;;;;19.85;7.85;;;;;;;20.97;48.75;98836.34;5088470;28;20040;-73
2021/06/15 08:10:26;;;;;;;18.13;8.18;;;;;;;21.03;48.42;98840.47;5087901;28;20196;-72
2021/06/15 08:12:52;;;;;;;12.88;5.72;;;;;;;21.07;47.84;98846.97;5086496;28;20452;-72
2021/06/15 08:15:18;;;;;;;13.48;6.13;;;;;;;21.11;47.16;98838.72;5086974;28;20496;-73
2021/06/15 08:17:44;;;;;;;15.15;6.10;;;;;;;21.12;46.66;98848.69;5085857;28;20024;-72
2021/06/15 08:20:10;;;;;;;12.35;5.80;;;;;;;21.11;45.99;98842.28;5086890;28;20056;-72
2021/06/15 08:22:37;;;;;;;13.98;6.45;;;;;;;21.08;45.67;98845.00;5087514;28;20059;-73
2021/06/15 08:25:04;;;;;;;15.27;5.30;;;;;;;21.09;45.26;98838.25;5090833;28;20118;-75
2021/06/15 08:27:31;;;;;;;14.93;6.15;;;;;;;21.09;45.29;98833.47;5091760;28;20028;-73
2021/06/15 08:29:56;;;;;;;16.48;6.20;;;;;;;21.12;44.97;98843.91;5071994;28;20435;-72
2021/06/15 08:32:22;;;;;;;13.52;6.32;;;;;;;21.17;44.66;98842.03;5092042;28;20114;-73
2021/06/15 08:34:48;;;;;;;21.25;7.88;;;;;;;21.20;44.88;98844.91;5105293;28;20484;-73
2021/06/15 08:37:13;;;;;;;17.52;7.95;;;;;;;21.23;44.97;98835.81;5090649;28;20030;-74
2021/06/15 08:39:38;;;;;;;17.63;7.60;;;;;;;21.28;44.65;98834.75;5086436;28;20054;-78
2021/06/15 08:42:04;;;;;;;14.40;6.60;;;;;;;21.33;44.86;98830.88;5089896;28;20028;-73
2021/06/15 08:44:30;;;;;;;19.75;7.03;;;;;;;21.37;44.40;98832.59;5089265;28;20046;-74
2021/06/15 08:46:55;;;;;;;16.92;6.65;;;;;;;21.42;44.37;98835.09;5089031;28;20028;-73
2021/06/15 08:49:21;;;;;;;17.13;6.22;;;;;;;21.48;43.98;98830.09;5090528;28;20085;-73
2021/06/15 08:51:46;;;;;;;13.38;6.70;;;;;;;21.52;43.94;98827.38;5091529;28;20409;-74
2021/06/15 08:54:15;;;;;;;16.15;6.93;;;;;;;21.56;43.88;98817.09;5092353;28;20020;-75
2021/06/15 08:56:40;;;;;;;18.88;8.07;;;;;;;21.64;43.55;98827.31;5077714;28;20020;-80
2021/06/15 08:59:18;;;;;;;19.52;8.82;;;;;;;21.69;43.45;98831.78;5092794;28;20392;-79
2021/06/15 09:01:45;;;;;;;20.80;7.63;;;;;;;21.78;43.57;98828.81;5090109;28;20020;-79
2021/06/15 09:04:10;;;;;;;16.55;6.70;;;;;;;21.84;43.48;98827.34;5092517;28;20099;-80
2021/06/15 09:06:36;;;;;;;20.15;7.60;;;;;;;21.93;43.72;98813.22;5095735;28;20020;-76
2021/06/15 09:09:02;;;;;;;20.42;7.75;;;;;;;22.05;43.59;98823.44;5089845;28;20077;-79
2021/06/15 09:11:47;;;;;;;17.58;7.68;;;;;;;22.14;43.52;98818.47;5091116;28;20098;-80
2021/06/15 09:14:13;;;;;;;26.52;11.30;;;;;;;22.22;42.94;98823.00;5090964;28;20032;-78
2021/06/15 09:16:44;;;;;;;20.10;7.88;;;;;;;22.31;42.58;98822.81;5090548;28;20571;-77
2021/06/15 09:19:15;;;;;;;21.35;7.90;;;;;;;22.41;42.51;98824.22;5088336;28;20039;-76
2021/06/15 09:21:44;;;;;;;19.85;7.65;;;;;;;22.51;42.41;98820.03;5089382;28;20020;-80
2021/06/15 09:24:26;;;;;;;15.13;6.88;;;;;;;22.59;42.54;98814.25;5088454;28;20035;-75
2021/06/15 09:27:10;;;;;;;15.63;7.60;;;;;;;22.68;42.33;98824.38;5088748;28;20024;-75
2021/06/15 09:29:39;;;;;;;20.70;6.97;;;;;;;22.74;41.60;98815.34;5088681;28;20696;-76
2021/06/15 09:32:07;;;;;;;20.55;7.97;;;;;;;22.75;41.22;98816.97;5088415;28;20081;-75
2021/06/15 09:34:33;;;;;;;18.00;6.75;;;;;;;22.81;41.37;98811.88;5094307;28;20119;-76
2021/06/15 09:37:02;;;;;;;13.85;6.28;;;;;;;22.87;41.36;98804.78;5091234;28;20115;-75
2021/06/15 09:39:28;;;;;;;20.48;7.47;;;;;;;22.96;41.23;98795.38;5093951;28;20020;-76
2021/06/15 09:41:54;;;;;;;16.20;6.50;;;;;;;22.96;40.44;98796.16;5091606;28;20043;-82
2021/06/15 09:44:22;;;;;;;15.27;6.97;;;;;;;22.98;40.42;98790.22;5073547;28;20392;-84
2021/06/15 09:46:50;;;;;;;30.03;15.77;;;;;;;23.04;40.60;98788.69;5095081;28;20280;-88
2021/06/15 09:49:38;;;;;;;16.40;7.97;;;;;;;23.11;40.95;98796.41;5091631;28;20024;-89
2021/06/15 09:52:21;;;;;;;18.33;6.70;;;;;;;23.23;41.04;98785.06;5072293;28;20044;-87
2021/06/15 09:54:50;;;;;;;10.70;5.90;;;;;;;23.33;40.79;98794.84;5091298;28;20157;-86
2021/06/15 09:57:32;;;;;;;16.23;7.18;;;;;;;23.43;40.78;98797.00;5094473;28;20024;-84
2021/06/15 10:00:07;;;;;;;25.15;12.98;;;;;;;23.56;40.69;98800.41;5091003;28;20036;-88
2021/06/15 10:02:33;;;;;;;18.83;7.20;;;;;;;23.67;40.48;98788.53;5089459;28;20552;-81
2021/06/15 10:05:20;;;;;;;21.42;8.90;;;;;;;23.74;40.55;98797.88;5076828;28;20051;-82
2021/06/15 10:07:45;;;;;;;21.65;11.52;;;;;;;23.86;40.31;98796.03;5093318;28;20032;-76
2021/06/15 10:10:11;;;;;;;18.85;6.68;;;;;;;23.96;40.15;98800.19;5094575;28;20030;-78
2021/06/15 10:12:36;;;;;;;17.90;7.32;;;;;;;24.03;40.18;98811.53;5091615;28;20028;-77
2021/06/15 10:15:03;;;;;;;14.27;6.47;;;;;;;24.10;39.91;98794.78;5093743;28;20419;-77
2021/06/15 10:17:29;;;;;;;15.90;6.65;;;;;;;24.18;39.31;98788.09;5089230;28;20031;-78
2021/06/15 10:19:54;;;;;;;14.85;5.80;;;;;;;24.24;38.81;98791.41;5090766;28;20019;-77
2021/06/15 10:22:21;;;;;;;16.42;6.75;;;;;;;24.28;38.87;98789.41;5090242;28;20099;-76
2021/06/15 10:24:49;;;;;;;11.02;6.00;;;;;;;24.37;39.03;98787.13;5090619;28;20409;-78
2021/06/15 10:27:14;;;;;;;15.13;6.93;;;;;;;24.46;39.05;98784.03;5090210;28;20048;-78
2021/06/15 10:29:41;;;;;;;13.93;6.22;;;;;;;24.56;38.77;98776.97;5089922;28;20104;-78
2021/06/15 10:32:10;;;;;;;16.67;6.80;;;;;;;24.64;39.08;98789.06;5079568;28;20028;-75
2021/06/15 10:34:51;;;;;;;12.73;6.13;;;;;;;24.70;39.02;98778.28;5093276;28;20400;-77
2021/06/15 10:37:32;;;;;;;20.23;9.05;;;;;;;24.75;38.61;98776.00;5091185;28;20332;-78
2021/06/15 10:40:03;;;;;;;14.02;7.10;;;;;;;24.82;38.86;98764.84;5090372;28;20043;-76
2021/06/15 10:42:28;;;;;;;12.68;5.82;;;;;;;24.91;38.92;98766.50;5093310;28;20118;-79
2021/06/15 10:45:12;;;;;;;11.00;6.47;;;;;;;24.99;38.61;98771.00;5089149;28;20165;-77
2021/06/15 10:48:01;;;;;;;15.68;6.40;;;;;;;25.08;38.07;98777.13;5088666;28;20058;-77
2021/06/15 10:50:40;;;;;;;15.40;7.15;;;;;;;25.16;37.97;98769.56;5081342;28;20080;-77
2021/06/15 10:53:09;;;;;;;13.38;5.38;;;;;;;25.21;37.52;98765.59;5089570;28;20074;-78
2021/06/15 10:55:50;;;;;;;12.15;5.28;;;;;;;25.26;37.53;98762.44;5089960;28;20031;-78
2021/06/15 10:58:43;;;;;;;43.15;7.28;;;;;;;25.31;37.59;98759.25;5089242;28;20476;-77
2021/06/15 11:01:15;;;;;;;16.75;5.40;;;;;;;25.33;36.91;98756.88;5088223;28;20155;-77
2021/06/15 11:03:50;;;;;;;10.70;5.65;;;;;;;25.36;36.95;98753.28;5089174;28;20498;-79
2021/06/15 11:06:20;;;;;;;11.10;5.28;;;;;;;25.42;36.22;98750.94;5088815;28;20031;-79
2021/06/15 11:09:06;;;;;;;50.70;8.52;;;;;;;25.47;36.02;98746.97;5087296;28;20154;-77
2021/06/15 11:11:33;;;;;;;15.63;6.70;;;;;;;25.53;36.10;98760.25;5088558;28;20626;-78
2021/06/15 11:14:15;;;;;;;13.23;6.80;;;;;;;25.61;36.05;98751.88;5088584;28;20024;-78
2021/06/15 11:16:49;;;;;;;12.23;5.63;;;;;;;25.64;35.54;98748.28;5069247;28;20023;-82
2021/06/15 11:19:14;;;;;;;15.32;6.18;;;;;;;25.64;35.81;98743.50;5088675;28;20157;-77
2021/06/15 11:21:58;;;;;;;11.43;5.95;;;;;;;25.73;36.04;98751.56;5088880;28;20144;-79
2021/06/15 11:24:41;;;;;;;11.85;5.82;;;;;;;25.80;35.22;98740.38;5089152;28;20111;-82
2021/06/15 11:27:12;;;;;;;15.10;6.18;;;;;;;25.81;35.05;98750.41;5088397;28;20043;-81
2021/06/15 11:29:40;;;;;;;12.70;5.90;;;;;;;25.83;34.78;98735.97;5088711;28;20024;-81